Fremont, Minnesota
Current Conditions -  °F | °C
As of 8:14 AM on Thursday 27 Nov 2014 (Local Time) from KONA Reporting Station
Clear Clear  
Wind Chill: -3°   Ceiling: Unl
Heat Index:   Visibility: 10mi
Dew Point:   Wind: 7mph
Humidity: 67%   Direction: 330°NNW
Pressure: 30.5"   Gusts: 17mph
Location:  43.9439°N, 91.933°W
Report Text: KONA 271414Z AUTO 33006G15KT 10SM CLR M13/M18 A3050 RMK AO2
Loading
Personal Weather Stations






























Interactive Weather Map New forecast layout! Learn more

10-Day Weather Forecast

Advertisements
Track Severe Weather on mobile